Time;durP1;ratioP1;P1;durP2;ratioP2;P2;SDS_P1;SDS_P2;PMS_P1;PMS_P2;Temp;Humidity;BMP_temperature;BMP_pressure;BME280_temperature;BME280_humidity;BME280_pressure;Samples;Min_cycle;Max_cycle;Signal;HPM_P1;HPM_P2
2022/05/12 00:00:57;;;;;;;7.10;5.10;;;;;;;19.19;45.80;98161.63;432704;1270;112369;-44
2022/05/12 00:11:05;;;;;;;5.60;4.60;;;;;;;19.16;45.87;98153.05;432573;1271;108989;-43
2022/05/12 00:21:13;;;;;;;4.70;4.10;;;;;;;19.08;45.93;98146.23;432591;1271;99253;-46
2022/05/12 00:31:21;;;;;;;4.60;4.00;;;;;;;18.99;46.00;98135.46;432623;1271;109064;-47
2022/05/12 00:41:28;;;;;;;15.00;5.30;;;;;;;18.92;46.21;98127.93;432555;1271;99260;-48
2022/05/12 00:51:40;;;;;;;9.80;5.00;;;;;;;18.86;46.19;98125.29;432692;1272;112413;-43
2022/05/12 01:01:46;;;;;;;6.30;4.90;;;;;;;18.85;46.32;98116.64;432645;1272;108784;-43
2022/05/12 01:22:02;;;;;;;9.60;4.90;;;;;;;18.70;46.33;98113.81;432537;1271;108677;-42
2022/05/12 01:32:10;;;;;;;6.80;4.90;;;;;;;18.59;46.51;98106.52;432588;1272;99155;-47
2022/05/12 01:42:17;;;;;;;7.10;5.10;;;;;;;18.51;46.52;98105.70;432602;1271;113044;-43
2022/05/12 01:52:24;;;;;;;9.60;4.70;;;;;;;18.44;46.61;98106.34;433053;1261;108865;-45
2022/05/12 02:02:32;;;;;;;7.80;4.90;;;;;;;18.43;46.71;98100.94;432479;1271;98391;-48
2022/05/12 02:12:39;;;;;;;6.70;4.20;;;;;;;18.38;46.74;98095.88;432571;1271;108925;-42
2022/05/12 02:22:46;;;;;;;8.00;5.20;;;;;;;18.36;46.72;98095.02;432615;1271;98299;-42
2022/05/12 02:32:54;;;;;;;5.40;4.30;;;;;;;18.35;46.76;98086.04;432547;1271;112526;-47
2022/05/12 02:43:01;;;;;;;8.00;4.90;;;;;;;18.34;46.86;98084.77;432564;1271;108805;-48
2022/05/12 02:53:07;;;;;;;5.50;4.40;;;;;;;18.33;46.88;98075.48;432519;1271;99248;-47
2022/05/12 03:03:14;;;;;;;7.30;4.90;;;;;;;18.33;46.97;98070.11;432313;1271;108865;-43
2022/05/12 03:23:29;;;;;;;8.90;5.10;;;;;;;18.46;46.96;98068.67;432401;1271;112139;-46
2022/05/12 03:33:37;;;;;;;9.40;5.50;;;;;;;18.59;47.11;98055.44;432445;1271;108765;-42
2022/05/12 03:54:08;;;;;;;9.40;6.00;;;;;;;19.22;46.90;98064.69;432580;1271;108274;-43
2022/05/12 04:04:15;;;;;;;5.90;4.80;;;;;;;19.80;46.20;98072.69;432597;1271;99264;-45
2022/05/12 04:14:23;;;;;;;9.00;5.20;;;;;;;21.16;45.67;98078.59;432658;1271;112708;-43
2022/05/12 04:24:30;;;;;;;6.70;4.80;;;;;;;22.84;44.29;98080.98;432578;1271;108763;-45
2022/05/12 04:45:08;;;;;;;13.10;5.30;;;;;;;24.07;42.28;98091.73;432572;1271;108761;-46
2022/05/12 04:55:17;;;;;;;13.40;6.40;;;;;;;24.48;41.64;98090.81;432729;1271;98013;-48
2022/05/12 05:05:25;;;;;;;6.00;4.60;;;;;;;25.03;40.85;98087.23;432473;1271;113264;-46
2022/05/12 05:15:33;;;;;;;17.90;5.80;;;;;;;25.53;40.16;98083.02;432556;1271;108631;-46
2022/05/12 05:25:46;;;;;;;42.40;7.50;;;;;;;25.24;39.89;98088.75;432585;1271;98014;-46
2022/05/12 05:35:53;;;;;;;51.70;7.70;;;;;;;25.18;39.98;98096.38;432263;1273;108836;-43
2022/05/12 05:45:59;;;;;;;;;;;;;;;26.17;39.67;98094.25;432460;1271;99268;-42
2022/05/12 05:56:06;;;;;;;10.40;5.50;;;;;;;26.63;39.11;98099.77;432606;1271;112457;-47
2022/05/12 06:06:13;;;;;;;16.90;5.40;;;;;;;26.93;38.33;98101.80;432652;1271;107790;-46
2022/05/12 06:16:21;;;;;;;9.20;4.80;;;;;;;26.60;38.46;98111.66;432106;1271;651020;-47
2022/05/12 06:26:27;;;;;;;8.00;5.10;;;;;;;27.04;37.98;98113.58;432433;1271;107351;-48
2022/05/12 06:36:33;;;;;;;13.40;5.20;;;;;;;27.40;37.73;98123.88;432551;1271;99260;-44
2022/05/12 06:56:48;;;;;;;10.50;4.70;;;;;;;26.85;37.76;98146.80;432593;1271;109644;-43
2022/05/12 07:06:55;;;;;;;10.10;4.40;;;;;;;27.54;37.68;98141.05;432442;1271;98831;-47
2022/05/12 07:17:03;;;;;;;8.00;5.00;;;;;;;28.32;37.18;98135.23;432489;1271;107809;-44
2022/05/12 07:27:10;;;;;;;6.20;4.30;;;;;;;27.97;36.67;98132.64;432427;1271;98042;-46
2022/05/12 07:37:18;;;;;;;12.40;5.00;;;;;;;28.37;36.87;98132.85;432483;1273;111521;-43
2022/05/12 07:47:27;;;;;;;17.70;4.60;;;;;;;28.89;35.47;98148.37;432404;1271;109267;-45
2022/05/12 07:57:48;;;;;;;16.70;4.20;;;;;;;28.20;34.77;98151.74;432687;1271;98034;-44
2022/05/12 08:18:02;;;;;;;20.80;4.30;;;;;;;28.00;34.17;98166.46;432565;1271;99261;-46
2022/05/12 08:28:07;;;;;;;8.70;4.30;;;;;;;28.19;34.68;98169.52;432595;1271;113098;-46
2022/05/12 08:38:16;;;;;;;17.20;4.60;;;;;;;28.44;33.64;98177.75;432338;1271;108863;-43
2022/05/12 08:48:24;;;;;;;13.10;4.50;;;;;;;28.15;33.67;98187.69;432684;1271;99286;-47
2022/05/12 08:58:30;;;;;;;18.50;4.90;;;;;;;28.13;33.29;98202.88;432582;1271;108737;-45
2022/05/12 09:08:40;;;;;;;49.90;6.00;;;;;;;27.64;33.62;98209.35;432655;1271;99322;-43
2022/05/12 09:18:50;;;;;;;16.60;3.60;;;;;;;27.28;33.61;98214.58;432701;1271;112973;-46
2022/05/12 09:29:10;;;;;;;21.40;4.30;;;;;;;27.59;33.99;98214.43;432504;1271;108810;-43
2022/05/12 09:39:37;;;;;;;9.10;3.40;;;;;;;27.71;33.37;98229.75;432635;1271;98741;-45
2022/05/12 09:49:46;;;;;;;21.90;3.60;;;;;;;26.37;34.66;98258.69;432507;1271;107485;-43
2022/05/12 09:59:55;;;;;;;13.00;3.30;;;;;;;25.88;36.13;98268.01;432523;1271;98349;-42
2022/05/12 10:10:03;;;;;;;31.80;5.70;;;;;;;26.49;35.40;98270.35;432694;1271;112428;-48
2022/05/12 10:20:14;;;;;;;33.30;4.90;;;;;;;25.78;36.04;98289.21;432420;1271;108798;-43
2022/05/12 10:30:28;;;;;;;31.70;5.50;;;;;;;25.60;36.63;98307.17;432521;1271;98404;-46
2022/05/12 10:40:33;;;;;;;27.20;4.40;;;;;;;25.52;36.31;98327.20;432543;1271;107810;-43
2022/05/12 11:00:58;;;;;;;38.90;5.00;;;;;;;25.68;35.80;98347.75;432512;1271;112516;-47
2022/05/12 11:11:12;;;;;;;27.90;4.60;;;;;;;26.37;34.96;98361.94;432510;1271;108833;-46
2022/05/12 11:21:25;;;;;;;12.30;3.60;;;;;;;26.47;35.24;98372.02;432443;1271;99075;-47
2022/05/12 11:31:30;;;;;;;27.20;4.00;;;;;;;26.51;34.89;98378.64;432555;1271;109046;-43
2022/05/12 11:41:43;;;;;;;14.30;2.60;;;;;;;25.49;34.26;98393.89;432429;1271;98835;-42
2022/05/12 11:52:01;;;;;;;23.70;3.80;;;;;;;24.90;35.42;98400.01;432594;1271;112389;-45
2022/05/12 12:02:29;;;;;;;12.70;2.70;;;;;;;24.50;36.09;98414.75;432580;1271;108890;-46
2022/05/12 12:12:56;;;;;;;19.90;2.60;;;;;;;24.57;35.32;98427.54;432543;1271;99248;-43
2022/05/12 12:23:01;;;;;;;;;;;;;;;24.82;34.22;98442.41;432574;1271;108636;-45
2022/05/12 12:33:16;;;;;;;12.00;2.00;;;;;;;24.89;33.38;98445.23;432462;1271;98041;-46
2022/05/12 12:43:30;;;;;;;17.70;2.60;;;;;;;24.72;33.78;98451.98;432519;1271;112437;-45
2022/05/12 13:04:07;;;;;;;26.40;2.20;;;;;;;24.22;33.85;98464.63;432510;1271;98966;-44
2022/05/12 13:14:17;;;;;;;16.20;1.60;;;;;;;24.17;32.85;98468.13;432603;1271;108757;-45
2022/05/12 13:24:22;;;;;;;14.50;2.20;;;;;;;24.01;33.09;98478.61;432647;1271;98031;-42
2022/05/12 13:34:31;;;;;;;16.70;1.50;;;;;;;23.64;33.51;98480.78;432537;1271;111539;-44
2022/05/12 13:44:39;;;;;;;12.70;1.60;;;;;;;23.79;33.59;98482.84;432424;1271;108874;-43
2022/05/12 13:55:02;;;;;;;15.80;1.70;;;;;;;23.90;33.17;98479.02;432525;1271;99258;-42
2022/05/12 14:05:09;;;;;;;20.30;2.50;;;;;;;23.79;32.84;98493.52;432496;1271;107435;-44
2022/05/12 14:25:40;;;;;;;20.50;2.40;;;;;;;23.82;31.80;98503.58;432490;1271;111337;-46
2022/05/12 14:35:48;;;;;;;9.20;2.00;;;;;;;23.64;31.06;98509.66;432464;1271;109086;-44
2022/05/12 14:45:56;;;;;;;17.70;1.90;;;;;;;23.58;30.39;98498.73;432655;1271;99273;-44
2022/05/12 14:56:04;;;;;;;8.10;2.20;;;;;;;23.43;29.90;98509.06;432542;1271;108871;-46
2022/05/12 15:06:12;;;;;;;13.00;1.50;;;;;;;23.26;28.52;98507.07;432283;1271;97996;-47
2022/05/12 15:16:19;;;;;;;9.70;1.40;;;;;;;23.09;28.18;98515.02;432474;1271;112553;-49
2022/05/12 15:26:31;;;;;;;13.30;1.10;;;;;;;23.04;28.03;98517.34;432367;1271;108853;-44
2022/05/12 15:36:41;;;;;;;14.40;1.80;;;;;;;22.89;27.00;98523.64;432545;1271;98383;-47
2022/05/12 15:46:55;;;;;;;4.20;0.90;;;;;;;22.64;26.61;98525.05;432485;1271;109599;-46
2022/05/12 15:57:01;;;;;;;7.40;1.10;;;;;;;22.51;27.13;98522.48;432531;1271;98827;-46
2022/05/12 16:07:06;;;;;;;7.50;1.20;;;;;;;22.37;27.87;98519.29;432606;1271;111586;-43
2022/05/12 16:17:13;;;;;;;67.50;4.60;;;;;;;22.24;28.90;98520.60;432624;1271;109055;-46
2022/05/12 16:27:21;;;;;;;61.40;4.50;;;;;;;22.06;29.26;98526.37;432614;1271;99350;-46
2022/05/12 16:37:28;;;;;;;13.40;1.60;;;;;;;21.75;29.96;98528.68;432605;1271;107455;-45
2022/05/12 16:47:36;;;;;;;12.80;1.40;;;;;;;21.44;30.55;98531.61;432592;1271;99241;-45
2022/05/12 16:57:44;;;;;;;10.10;0.90;;;;;;;21.22;31.14;98539.77;432480;1271;111074;-47
2022/05/12 17:08:06;;;;;;;14.20;2.70;;;;;;;20.82;31.22;98548.41;432606;1270;108878;-43
2022/05/12 17:18:13;;;;;;;7.40;1.10;;;;;;;20.61;31.85;98550.53;432576;1271;97978;-46
2022/05/12 17:28:21;;;;;;;9.60;3.70;;;;;;;20.42;32.38;98556.13;432423;1271;108955;-47
2022/05/12 17:38:27;;;;;;;6.00;1.30;;;;;;;20.14;32.79;98559.09;432528;1271;99286;-43
2022/05/12 17:48:35;;;;;;;15.30;1.80;;;;;;;19.76;32.87;98563.29;432665;1271;112768;-47
2022/05/12 17:58:42;;;;;;;12.30;1.40;;;;;;;19.38;33.24;98571.67;432589;1271;108878;-44
2022/05/12 18:08:51;;;;;;;7.10;1.00;;;;;;;19.09;33.57;98583.02;432670;1270;98012;-42
2022/05/12 18:18:58;;;;;;;24.60;3.90;;;;;;;18.77;33.99;98597.73;432158;1271;362042;-42
2022/05/12 18:29:13;;;;;;;11.00;3.50;;;;;;;18.47;34.80;98601.31;432531;1271;97986;-47
2022/05/12 18:39:19;;;;;;;;;;;;;;;18.07;35.74;98606.70;432745;1271;111669;-43
2022/05/12 18:49:26;;;;;;;13.60;5.30;;;;;;;17.37;36.68;98618.25;432531;1271;108724;-46
2022/05/12 18:59:34;;;;;;;27.50;8.10;;;;;;;16.92;37.90;98632.67;432608;1271;98813;-46
2022/05/12 19:09:42;;;;;;;16.50;6.70;;;;;;;16.52;38.45;98640.80;432530;1271;110337;-43
2022/05/12 19:19:50;;;;;;;16.10;6.90;;;;;;;16.06;39.51;98649.59;432738;1271;99271;-43
2022/05/12 19:29:57;;;;;;;17.50;6.20;;;;;;;15.74;40.32;98660.29;432500;1271;112436;-47
2022/05/12 19:40:06;;;;;;;17.70;6.00;;;;;;;15.43;41.12;98662.48;432501;1271;108799;-45
2022/05/12 19:50:16;;;;;;;19.00;6.50;;;;;;;15.12;41.71;98671.34;432519;1271;99246;-45
2022/05/12 20:00:23;;;;;;;15.90;6.50;;;;;;;14.91;42.55;98674.51;432608;1271;108840;-45
2022/05/12 20:20:37;;;;;;;17.90;6.60;;;;;;;14.46;43.64;98686.40;432569;1271;113424;-45
2022/05/12 20:30:46;;;;;;;20.10;5.30;;;;;;;14.19;44.05;98695.45;432479;1271;108020;-42
2022/05/12 20:40:53;;;;;;;13.70;5.10;;;;;;;13.87;44.71;98703.62;432466;1271;99347;-43
2022/05/12 20:51:01;;;;;;;8.00;4.80;;;;;;;13.63;45.54;98708.59;432434;1271;107628;-43
2022/05/12 21:01:09;;;;;;;14.50;5.20;;;;;;;13.61;46.14;98709.75;432405;1271;99145;-46
2022/05/12 21:11:18;;;;;;;13.00;5.00;;;;;;;13.56;46.48;98715.47;432596;1271;112769;-45
2022/05/12 21:21:26;;;;;;;10.10;5.00;;;;;;;13.48;47.15;98717.27;432365;1271;108746;-44
2022/05/12 21:31:33;;;;;;;9.30;4.40;;;;;;;13.62;47.57;98717.35;432555;1271;99289;-46
2022/05/12 21:51:46;;;;;;;15.40;6.50;;;;;;;13.54;48.31;98729.30;432565;1271;99347;-46
2022/05/12 22:01:57;;;;;;;23.50;8.00;;;;;;;13.34;48.65;98738.02;432718;1271;112399;-45
2022/05/12 22:12:21;;;;;;;28.90;9.70;;;;;;;13.35;49.36;98739.63;432548;1271;108800;-45
2022/05/12 22:22:30;;;;;;;23.70;9.40;;;;;;;13.39;49.74;98743.14;432792;1271;99426;-42
2022/05/12 22:32:37;;;;;;;25.70;13.30;;;;;;;13.34;50.12;98742.05;432379;1271;108820;-48
2022/05/12 22:42:45;;;;;;;41.20;19.40;;;;;;;13.12;50.46;98738.80;432571;1271;99301;-45
2022/05/12 22:52:52;;;;;;;41.60;22.10;;;;;;;13.08;50.99;98735.98;432525;1271;112890;-44
2022/05/12 23:03:00;;;;;;;89.50;49.60;;;;;;;13.20;51.39;98739.78;432323;1271;108815;-42
2022/05/12 23:13:09;;;;;;;66.20;31.90;;;;;;;13.33;51.61;98739.77;432591;1271;99289;-46
2022/05/12 23:23:17;;;;;;;56.80;28.30;;;;;;;13.31;51.92;98746.23;432636;1271;107826;-43
2022/05/12 23:33:24;;;;;;;36.10;19.30;;;;;;;13.30;52.22;98746.84;432432;1271;99368;-46
2022/05/12 23:43:31;;;;;;;34.80;18.20;;;;;;;13.44;52.59;98749.94;432390;1271;112297;-46
2022/05/12 23:53:40;;;;;;;34.70;16.70;;;;;;;13.50;52.84;98744.09;432459;1271;109360;-45
